Time;durP1;ratioP1;P1;durP2;ratioP2;P2;SDS_P1;SDS_P2;PMS_P1;PMS_P2;Temp;Humidity;BMP_temperature;BMP_pressure;BME280_temperature;BME280_humidity;BME280_pressure;Samples;Min_cycle;Max_cycle;Signal;HPM_P1;HPM_P2
2022/04/22 00:01:18;;;;;;;8.07;4.30;;;;;;;10.74;60.01;96132.91;6096730;23;20176;-84
2022/04/22 00:03:46;;;;;;;8.30;5.28;;;;;;;10.60;60.57;96138.69;6098128;23;20222;-85
2022/04/22 00:06:14;;;;;;;7.50;4.88;;;;;;;10.66;60.28;96129.81;6088080;23;20268;-84
2022/04/22 00:08:40;;;;;;;7.18;5.20;;;;;;;10.71;60.36;96141.25;6087733;23;20166;-81
2022/04/22 00:13:49;;;;;;;7.72;4.88;;;;;;;10.75;59.97;96129.25;6090746;23;20254;-82
2022/04/22 00:16:15;;;;;;;7.35;5.20;;;;;;;10.71;60.46;96128.22;6089197;23;20164;-82
2022/04/22 00:18:41;;;;;;;8.45;5.50;;;;;;;10.76;60.21;96134.19;6096377;23;20175;-85
2022/04/22 00:21:07;;;;;;;8.77;4.93;;;;;;;10.86;59.84;96122.91;6097086;23;20244;-82
2022/04/22 00:23:32;;;;;;;7.07;5.18;;;;;;;10.60;60.69;96130.88;6121956;23;20224;-84
2022/04/22 00:26:00;;;;;;;7.18;5.13;;;;;;;10.66;60.77;96123.84;6096955;23;20043;-85
2022/04/22 00:28:26;;;;;;;8.48;5.65;;;;;;;10.70;60.28;96121.47;6062292;23;20602;-83
2022/04/22 00:30:51;;;;;;;8.57;5.75;;;;;;;10.68;60.34;96125.13;6121534;23;20213;-85
2022/04/22 00:33:17;;;;;;;8.70;5.30;;;;;;;10.63;60.55;96124.38;6062426;23;20232;-85
2022/04/22 00:35:44;;;;;;;8.75;6.35;;;;;;;10.68;60.34;96127.72;6121659;23;20415;-83
2022/04/22 00:38:09;;;;;;;7.60;5.32;;;;;;;10.73;60.05;96123.53;6061506;23;20248;-84
2022/04/22 00:40:35;;;;;;;7.28;5.75;;;;;;;10.53;60.70;96114.81;6096989;23;20648;-82
2022/04/22 00:43:16;;;;;;;8.40;5.88;;;;;;;10.27;61.64;96117.50;6096861;23;20207;-86
2022/04/22 00:45:42;;;;;;;8.88;5.95;;;;;;;10.44;61.12;96111.22;6113743;23;20153;-85
2022/04/22 00:48:07;;;;;;;8.55;5.78;;;;;;;10.38;61.62;96112.28;6086442;23;20163;-83
2022/04/22 00:50:33;;;;;;;8.85;6.38;;;;;;;10.42;61.21;96103.69;6121324;23;20250;-82
2022/04/22 00:52:59;;;;;;;9.05;6.28;;;;;;;10.44;61.27;96100.81;6086219;23;20179;-83
2022/04/22 00:55:24;;;;;;;9.27;6.25;;;;;;;10.34;61.39;96096.44;6062079;23;20278;-84
2022/04/22 00:57:50;;;;;;;11.82;7.20;;;;;;;10.26;61.91;96100.38;6061819;23;20556;-81
2022/04/22 01:00:16;;;;;;;10.48;6.50;;;;;;;10.29;61.34;96092.00;6111657;23;20188;-86
2022/04/22 01:02:41;;;;;;;9.05;6.28;;;;;;;10.18;61.79;96087.91;6096792;23;20256;-83
2022/04/22 01:10:37;;;;;;;9.73;6.45;;;;;;;9.89;62.89;96090.38;6111704;23;20239;-80
2022/04/22 01:13:02;;;;;;;11.02;6.68;;;;;;;10.00;62.42;96091.13;6097175;23;20632;-82
2022/04/22 01:15:28;;;;;;;13.13;7.57;;;;;;;9.84;62.94;96085.22;6063764;23;20192;-85
2022/04/22 01:17:53;;;;;;;12.18;7.32;;;;;;;9.67;63.61;96082.94;6086031;23;20261;-82
2022/04/22 01:20:19;;;;;;;10.73;6.53;;;;;;;9.74;63.60;96073.03;6061885;23;20073;-85
2022/04/22 01:22:44;;;;;;;13.10;7.80;;;;;;;9.61;63.79;96065.78;6087245;23;20172;-83
2022/04/22 01:25:09;;;;;;;12.50;7.75;;;;;;;9.73;63.45;96059.25;6061951;23;20283;-82
2022/04/22 01:27:37;;;;;;;11.93;7.32;;;;;;;9.89;63.03;96064.38;6086636;23;20254;-84
2022/04/22 01:30:06;;;;;;;12.93;8.05;;;;;;;9.81;62.87;96060.50;6096688;23;20702;-82
2022/04/22 01:32:31;;;;;;;14.07;8.07;;;;;;;9.71;63.27;96061.31;6096958;23;20628;-82
2022/04/22 01:34:57;;;;;;;13.65;8.38;;;;;;;9.95;62.89;96063.31;6062203;23;20149;-85
2022/04/22 01:37:23;;;;;;;13.57;7.55;;;;;;;9.80;62.89;96058.97;6085727;23;20271;-83
2022/04/22 01:39:48;;;;;;;12.30;8.40;;;;;;;9.86;62.79;96065.69;6096319;23;20164;-83
2022/04/22 01:42:14;;;;;;;12.50;8.23;;;;;;;9.76;62.79;96055.31;6096415;23;20179;-85
2022/04/22 01:44:39;;;;;;;13.52;8.30;;;;;;;9.74;63.47;96063.41;6086762;23;20187;-85
2022/04/22 01:47:05;;;;;;;12.52;8.35;;;;;;;9.82;62.98;96051.69;6121004;23;20177;-85
2022/04/22 01:49:31;;;;;;;14.93;8.60;;;;;;;9.78;62.84;96050.63;6086299;23;20175;-82
2022/04/22 01:51:56;;;;;;;12.73;8.65;;;;;;;9.71;63.03;96048.31;6062078;23;20265;-85
2022/04/22 01:54:22;;;;;;;14.70;8.50;;;;;;;9.64;63.67;96047.06;6062141;23;20188;-83
2022/04/22 01:56:47;;;;;;;13.75;8.75;;;;;;;9.64;63.49;96049.66;6096172;23;20397;-85
2022/04/22 01:59:13;;;;;;;15.65;8.98;;;;;;;9.69;63.70;96049.66;6062317;23;20269;-84
2022/04/22 02:01:40;;;;;;;15.48;8.82;;;;;;;9.47;63.69;96037.75;6065028;23;20153;-82
2022/04/22 02:04:06;;;;;;;15.48;9.52;;;;;;;9.50;64.19;96039.06;6124875;23;20516;-84
2022/04/22 02:06:32;;;;;;;15.35;8.88;;;;;;;9.60;63.60;96043.44;6096106;23;20287;-85
2022/04/22 02:08:58;;;;;;;16.40;9.68;;;;;;;9.52;63.66;96037.72;6121597;23;20179;-85
2022/04/22 02:11:23;;;;;;;15.20;9.32;;;;;;;9.40;64.35;96033.91;6096414;23;20194;-86
2022/04/22 02:13:49;;;;;;;14.02;8.27;;;;;;;9.30;64.48;96026.91;6096666;23;20231;-82
2022/04/22 02:16:14;;;;;;;15.13;8.82;;;;;;;9.28;64.67;96019.38;6087936;23;20231;-85
2022/04/22 02:18:41;;;;;;;14.52;9.23;;;;;;;9.37;64.17;96027.38;6096280;23;20179;-85
2022/04/22 02:21:10;;;;;;;17.27;9.60;;;;;;;9.37;64.18;96028.19;6068731;23;20187;-85
2022/04/22 02:23:36;;;;;;;15.65;10.15;;;;;;;9.16;64.94;96022.25;6124308;23;20239;-85
2022/04/22 02:26:03;;;;;;;17.00;9.95;;;;;;;9.07;65.18;96025.66;6098209;23;20247;-84
2022/04/22 02:28:34;;;;;;;13.77;8.48;;;;;;;9.18;64.55;96024.59;6122843;23;20175;-85
2022/04/22 02:31:07;;;;;;;16.08;9.68;;;;;;;9.14;65.18;96013.94;6099514;23;20137;-85
2022/04/22 02:33:33;;;;;;;15.45;9.18;;;;;;;9.21;65.00;96016.28;6123193;23;20326;-84
2022/04/22 02:35:59;;;;;;;15.05;9.27;;;;;;;9.18;64.93;96015.00;6098279;23;20571;-83
2022/04/22 02:38:27;;;;;;;16.00;9.90;;;;;;;9.00;65.23;96012.94;6063152;23;20180;-81
2022/04/22 02:46:20;;;;;;;18.17;10.55;;;;;;;9.01;66.10;96001.50;6091915;23;20462;-87
2022/04/22 02:48:45;;;;;;;16.40;10.30;;;;;;;8.95;65.70;96010.34;6063186;23;20309;-86
2022/04/22 02:51:11;;;;;;;18.83;10.93;;;;;;;8.91;65.70;95993.75;6091889;23;20322;-86
2022/04/22 02:53:36;;;;;;;20.70;11.35;;;;;;;8.69;66.58;95996.63;6061041;23;20632;-83
2022/04/22 02:56:02;;;;;;;19.67;11.10;;;;;;;8.68;67.03;95997.66;6097665;23;20226;-82
2022/04/22 02:58:27;;;;;;;19.80;11.32;;;;;;;8.89;65.77;95995.81;6062856;23;20188;-82
2022/04/22 03:00:53;;;;;;;16.13;10.90;;;;;;;8.88;65.85;95986.50;6097871;23;20257;-86
2022/04/22 03:03:18;;;;;;;18.75;11.55;;;;;;;8.71;66.47;95994.56;6063832;23;20312;-85
2022/04/22 03:05:44;;;;;;;20.95;10.05;;;;;;;8.90;65.51;95992.19;6063390;23;20594;-84
2022/04/22 03:08:09;;;;;;;18.63;10.23;;;;;;;8.86;66.06;95981.56;6062589;23;20218;-87
2022/04/22 03:10:34;;;;;;;20.25;11.60;;;;;;;8.76;66.48;95992.72;6063493;23;20172;-84
2022/04/22 03:13:00;;;;;;;18.10;10.60;;;;;;;8.58;66.68;95990.66;6098205;23;20167;-85
2022/04/22 03:15:26;;;;;;;20.05;11.95;;;;;;;8.60;67.02;95989.38;6100078;23;20618;-85
2022/04/22 03:17:52;;;;;;;25.00;11.73;;;;;;;8.41;67.79;95986.50;6062466;23;20187;-85
2022/04/22 03:20:17;;;;;;;22.45;11.60;;;;;;;8.60;67.03;95983.38;6097736;23;20222;-83
2022/04/22 03:22:43;;;;;;;23.73;12.65;;;;;;;8.55;67.31;95980.78;6063222;23;20103;-84
2022/04/22 03:25:09;;;;;;;21.15;12.20;;;;;;;8.63;66.76;95981.06;6063031;23;21189;-85
2022/04/22 03:27:34;;;;;;;22.48;12.77;;;;;;;8.70;66.59;95983.38;6097757;23;20175;-84
2022/04/22 03:30:02;;;;;;;21.45;12.68;;;;;;;8.54;67.16;95980.03;6063045;23;20688;-84
2022/04/22 03:32:28;;;;;;;29.55;14.88;;;;;;;8.32;68.38;95985.44;6063771;23;20618;-85
2022/04/22 03:34:53;;;;;;;24.02;13.57;;;;;;;8.47;67.80;95984.72;6122775;23;20170;-85
2022/04/22 03:37:18;;;;;;;26.10;14.95;;;;;;;8.59;67.59;95987.03;6062832;23;20278;-84
2022/04/22 03:39:44;;;;;;;27.95;14.73;;;;;;;8.61;67.54;95985.72;6097746;23;20137;-87
2022/04/22 03:42:09;;;;;;;28.58;15.10;;;;;;;8.55;67.58;95981.59;6089188;23;20225;-84
2022/04/22 03:44:36;;;;;;;28.92;14.95;;;;;;;8.35;68.01;95984.16;6087970;23;20280;-85
2022/04/22 03:47:03;;;;;;;25.65;14.48;;;;;;;8.43;68.04;95979.25;6063134;23;20171;-86
2022/04/22 03:49:29;;;;;;;25.15;15.00;;;;;;;8.29;68.46;95975.56;6098491;23;20163;-85
2022/04/22 03:51:58;;;;;;;29.60;16.13;;;;;;;8.15;69.07;95964.94;6096529;23;20180;-83
2022/04/22 03:54:25;;;;;;;30.10;15.48;;;;;;;8.19;68.92;95972.97;6097533;23;20597;-86
2022/04/22 03:59:35;;;;;;;33.30;16.43;;;;;;;8.06;69.06;95956.91;6126553;23;20332;-80
2022/04/22 04:02:03;;;;;;;32.97;17.05;;;;;;;8.33;68.81;95963.66;6112387;23;20637;-81
2022/04/22 04:04:29;;;;;;;29.40;16.08;;;;;;;8.34;68.42;95970.41;6098344;23;20653;-84
2022/04/22 04:06:54;;;;;;;35.17;15.82;;;;;;;8.20;68.92;95966.78;6063749;23;20140;-81
2022/04/22 04:17:38;;;;;;;34.25;17.38;;;;;;;8.17;68.92;95962.09;6127543;23;20220;-83
2022/04/22 04:25:32;;;;;;;36.20;18.88;;;;;;;8.08;69.59;95959.25;6091531;23;20598;-83
2022/04/22 04:27:59;;;;;;;33.78;18.50;;;;;;;8.08;69.53;95954.06;6062634;23;20184;-86
2022/04/22 04:30:25;;;;;;;39.17;19.13;;;;;;;8.06;69.99;95958.72;6087149;23;20183;-82
2022/04/22 04:32:53;;;;;;;37.28;18.92;;;;;;;7.98;69.98;95962.59;6147974;23;20183;-84
2022/04/22 04:35:18;;;;;;;36.58;18.92;;;;;;;8.00;70.28;95963.13;6062677;23;20255;-82
2022/04/22 04:37:44;;;;;;;37.72;18.45;;;;;;;8.22;69.39;95962.09;6121217;23;20294;-84
2022/04/22 04:40:12;;;;;;;37.65;18.42;;;;;;;8.16;69.49;95963.16;6097342;23;20259;-84
2022/04/22 04:42:37;;;;;;;39.70;19.10;;;;;;;8.13;69.77;95956.66;6096926;23;20211;-86
2022/04/22 04:45:04;;;;;;;36.05;19.30;;;;;;;8.23;69.07;95959.25;6087491;23;20270;-85
2022/04/22 04:47:29;;;;;;;40.67;21.38;;;;;;;8.16;69.38;95950.94;6087026;23;20137;-84
2022/04/22 04:49:55;;;;;;;39.50;19.48;;;;;;;8.33;69.34;95949.91;6062825;23;20235;-85
2022/04/22 04:52:20;;;;;;;39.70;19.73;;;;;;;8.37;68.22;95949.13;6062664;23;20192;-82
2022/04/22 04:54:47;;;;;;;39.42;19.52;;;;;;;8.36;68.92;95952.78;6087930;23;20321;-88
2022/04/22 04:57:13;;;;;;;38.10;18.60;;;;;;;8.19;70.00;95960.00;6087296;23;20274;-82
2022/04/22 04:59:38;;;;;;;42.28;20.00;;;;;;;8.30;69.37;95964.19;6148483;23;20078;-84
2022/04/22 05:02:03;;;;;;;38.17;19.48;;;;;;;8.15;69.62;95953.81;6061717;23;20552;-87
2022/04/22 05:04:29;;;;;;;38.55;19.27;;;;;;;8.23;69.35;95959.25;6061787;23;20184;-85
2022/04/22 05:06:54;;;;;;;35.08;19.17;;;;;;;8.33;69.64;95961.06;6095350;23;20153;-82
2022/04/22 05:09:20;;;;;;;42.33;20.02;;;;;;;8.18;69.60;95963.66;6147421;23;20359;-84
2022/04/22 05:11:45;;;;;;;42.55;19.92;;;;;;;8.23;69.42;95963.66;6096363;23;20324;-87
2022/04/22 05:14:13;;;;;;;42.17;20.45;;;;;;;8.19;70.33;95965.19;6097389;23;20168;-86
2022/04/22 05:16:38;;;;;;;43.33;20.92;;;;;;;8.18;70.49;95966.25;6097258;23;20302;-81
2022/04/22 05:19:04;;;;;;;42.60;21.08;;;;;;;8.18;70.10;95968.84;6060793;23;20530;-82
2022/04/22 05:21:29;;;;;;;37.55;19.42;;;;;;;8.39;69.84;95964.44;6061401;23;20132;-83
2022/04/22 05:23:56;;;;;;;40.47;20.73;;;;;;;8.43;69.07;95958.50;6095789;23;20561;-83
2022/04/22 05:26:24;;;;;;;38.72;19.17;;;;;;;8.38;69.91;95955.88;6096116;23;20230;-82
2022/04/22 05:28:50;;;;;;;39.05;20.30;;;;;;;8.51;69.24;95956.44;6086736;23;20256;-83
2022/04/22 05:33:59;;;;;;;42.40;19.63;;;;;;;8.31;70.12;95952.78;6125989;23;20264;-83
2022/04/22 05:36:25;;;;;;;43.53;21.38;;;;;;;8.54;69.73;95963.69;6096080;23;20169;-83
2022/04/22 05:38:52;;;;;;;40.03;21.20;;;;;;;8.63;69.39;95956.94;6087079;23;20625;-84
2022/04/22 05:41:19;;;;;;;40.17;20.05;;;;;;;8.64;69.44;95950.72;6063367;23;20261;-85
2022/04/22 05:43:44;;;;;;;40.13;20.35;;;;;;;8.74;69.21;95961.06;6086857;23;20258;-83
2022/04/22 05:46:10;;;;;;;37.72;18.35;;;;;;;8.96;68.68;95960.78;6086807;23;20247;-83
2022/04/22 05:48:35;;;;;;;40.05;19.55;;;;;;;8.97;68.40;95958.94;6096867;23;20206;-82
2022/04/22 05:51:00;;;;;;;41.63;19.45;;;;;;;8.98;68.19;95956.09;6148774;23;20218;-82
2022/04/22 05:53:26;;;;;;;40.03;20.65;;;;;;;9.25;67.71;95957.56;6062995;23;20265;-83
2022/04/22 05:55:51;;;;;;;37.08;19.33;;;;;;;9.13;68.42;95959.69;6098846;23;20274;-86
2022/04/22 05:58:17;;;;;;;36.25;18.20;;;;;;;9.21;67.60;95950.56;6098791;23;20247;-83
2022/04/22 06:00:42;;;;;;;34.00;18.58;;;;;;;9.41;66.95;95960.09;6098547;23;20517;-83
2022/04/22 06:03:08;;;;;;;54.72;20.35;;;;;;;9.08;68.25;95954.50;6098257;23;20649;-84
2022/04/22 06:05:33;;;;;;;34.17;17.88;;;;;;;9.12;67.90;95953.72;6064396;23;20171;-82
2022/04/22 06:10:49;;;;;;;33.60;17.13;;;;;;;9.50;67.39;95950.72;6113957;23;20262;-86
2022/04/22 06:13:15;;;;;;;32.95;17.95;;;;;;;9.37;67.28;95946.84;6123747;23;20168;-84
2022/04/22 06:15:40;;;;;;;33.47;18.02;;;;;;;9.57;66.91;95946.00;6098354;23;20167;-83
2022/04/22 06:18:05;;;;;;;34.70;18.15;;;;;;;9.41;67.00;95953.09;6065711;23;20539;-82
2022/04/22 06:20:31;;;;;;;32.78;17.05;;;;;;;9.82;66.49;95947.69;6098434;23;20689;-84
2022/04/22 06:22:57;;;;;;;31.73;17.02;;;;;;;9.91;65.83;95943.47;6095648;23;20644;-85
2022/04/22 06:25:23;;;;;;;32.97;17.67;;;;;;;10.07;65.29;95940.75;6098926;23;20212;-87
2022/04/22 06:27:48;;;;;;;31.10;16.38;;;;;;;10.01;65.88;95934.84;6097169;23;20583;-85
2022/04/22 06:30:19;;;;;;;30.90;17.13;;;;;;;9.96;65.30;95931.50;6088829;23;20204;-85
2022/04/22 06:32:46;;;;;;;31.45;17.13;;;;;;;10.33;64.73;95936.16;6087460;23;20187;-84
2022/04/22 06:35:13;;;;;;;32.28;17.63;;;;;;;10.32;64.95;95926.06;6097615;23;20542;-85
2022/04/22 06:38:01;;;;;;;29.02;16.35;;;;;;;10.48;63.92;95937.88;6063066;23;20243;-84
2022/04/22 06:45:56;;;;;;;28.67;15.90;;;;;;;10.92;62.76;95929.13;6090955;23;20446;-85
2022/04/22 06:48:29;;;;;;;26.55;14.57;;;;;;;10.75;62.60;95931.38;6063353;23;20207;-85
2022/04/22 06:50:56;;;;;;;27.52;15.43;;;;;;;11.06;62.12;95934.44;6123331;23;20238;-84
2022/04/22 06:53:23;;;;;;;26.88;15.05;;;;;;;10.99;61.71;95929.56;6062208;23;20213;-84
2022/04/22 06:55:49;;;;;;;27.83;16.08;;;;;;;10.86;62.57;95925.81;6063862;23;20554;-87
2022/04/22 06:58:16;;;;;;;27.00;14.82;;;;;;;11.15;62.44;95939.81;6097193;23;20623;-85
2022/04/22 07:00:43;;;;;;;26.00;15.93;;;;;;;11.67;60.52;95932.13;6097997;23;20658;-84
2022/04/22 07:03:10;;;;;;;29.33;15.32;;;;;;;11.91;59.68;95934.69;6123238;23;20601;-85
2022/04/22 07:05:36;;;;;;;25.33;14.50;;;;;;;12.01;59.08;95926.72;6097390;23;20609;-87
2022/04/22 07:08:06;;;;;;;28.67;17.08;;;;;;;11.87;59.30;95928.47;6062655;23;20214;-85
2022/04/22 07:10:35;;;;;;;25.35;14.70;;;;;;;11.85;59.28;95928.75;6063774;23;20643;-83
2022/04/22 07:13:01;;;;;;;23.80;13.75;;;;;;;12.04;58.83;95934.00;6097582;23;20078;-86
2022/04/22 07:15:27;;;;;;;23.33;14.57;;;;;;;12.12;58.43;95933.34;6063526;23;20195;-85
2022/04/22 07:17:53;;;;;;;24.35;14.15;;;;;;;11.69;58.70;95935.25;6124682;23;20146;-82
2022/04/22 07:20:19;;;;;;;25.67;15.30;;;;;;;11.88;59.09;95937.88;6121885;23;20195;-82
2022/04/22 07:22:45;;;;;;;22.25;13.88;;;;;;;12.03;58.72;95940.28;6121997;23;20503;-85
2022/04/22 07:25:12;;;;;;;22.58;14.15;;;;;;;12.14;58.08;95936.44;6063093;23;20172;-84
2022/04/22 07:27:39;;;;;;;23.23;14.02;;;;;;;12.06;57.87;95938.94;6097386;23;20227;-84
2022/04/22 07:30:07;;;;;;;23.83;13.85;;;;;;;12.62;57.44;95937.25;6098048;23;20180;-86
2022/04/22 07:32:35;;;;;;;25.02;14.30;;;;;;;12.81;56.38;95939.81;6097352;23;20223;-81
2022/04/22 07:35:00;;;;;;;24.05;14.30;;;;;;;13.03;56.33;95928.69;6122892;23;20250;-84
2022/04/22 07:37:26;;;;;;;22.75;13.32;;;;;;;13.00;56.30;95934.50;6097012;23;20227;-84
2022/04/22 07:39:52;;;;;;;19.45;12.77;;;;;;;12.88;55.53;95930.50;6063307;23;20196;-86
2022/04/22 07:42:18;;;;;;;20.67;13.50;;;;;;;12.75;56.04;95931.28;6063432;23;20183;-84
2022/04/22 07:47:38;;;;;;;22.33;13.60;;;;;;;12.59;56.53;95937.84;6091957;23;20629;-85
2022/04/22 07:50:05;;;;;;;21.27;13.85;;;;;;;13.00;55.40;95932.66;6123960;23;20275;-79
2022/04/22 07:52:36;;;;;;;22.23;14.57;;;;;;;12.85;55.30;95944.19;6097099;23;20272;-77
2022/04/22 07:55:02;;;;;;;19.73;13.00;;;;;;;12.87;55.19;95942.03;6097807;23;20164;-76
2022/04/22 07:57:28;;;;;;;22.40;13.20;;;;;;;13.01;54.87;95938.66;6122174;23;20328;-77
2022/04/22 07:59:54;;;;;;;19.40;12.60;;;;;;;12.96;55.14;95949.97;6096995;23;20180;-76
2022/04/22 08:02:19;;;;;;;19.83;13.00;;;;;;;13.11;55.11;95933.25;6097500;23;20285;-77
2022/04/22 08:04:45;;;;;;;18.85;12.85;;;;;;;13.60;53.62;95931.75;6087214;23;20220;-77
2022/04/22 08:07:11;;;;;;;21.75;12.35;;;;;;;14.19;52.40;95926.53;6096711;23;20226;-77
2022/04/22 08:09:37;;;;;;;19.90;12.45;;;;;;;14.13;52.52;95932.97;6064183;23;20167;-79
2022/04/22 08:12:03;;;;;;;18.30;12.43;;;;;;;14.48;50.98;95924.53;6113538;23;20183;-80
2022/04/22 08:14:28;;;;;;;17.85;11.95;;;;;;;14.92;50.10;95931.56;6089816;23;20176;-79
2022/04/22 08:16:54;;;;;;;17.17;12.00;;;;;;;15.30;48.99;95925.06;6150378;23;20247;-80
2022/04/22 08:19:20;;;;;;;17.63;12.68;;;;;;;15.82;48.46;95930.41;6089599;23;20360;-80
2022/04/22 08:21:46;;;;;;;16.42;12.15;;;;;;;15.88;47.88;95929.16;6099105;23;20615;-75
2022/04/22 08:24:11;;;;;;;16.88;11.73;;;;;;;15.87;47.83;95927.63;6120905;23;20642;-75
2022/04/22 08:26:37;;;;;;;15.05;10.43;;;;;;;16.45;46.90;95914.28;6086554;23;20512;-76
2022/04/22 08:29:03;;;;;;;16.30;11.40;;;;;;;16.33;46.94;95922.81;6122131;23;20216;-79
2022/04/22 08:31:28;;;;;;;14.70;11.30;;;;;;;16.27;46.05;95929.31;6122176;23;20662;-78
2022/04/22 08:33:57;;;;;;;15.75;11.25;;;;;;;16.60;46.18;95926.91;6123355;23;20279;-80
2022/04/22 08:36:23;;;;;;;15.45;10.43;;;;;;;16.44;45.15;95924.03;6122510;23;20231;-77
2022/04/22 08:38:48;;;;;;;14.20;10.93;;;;;;;16.45;45.47;95915.06;6100122;23;20200;-78
2022/04/22 08:41:14;;;;;;;15.20;10.75;;;;;;;16.91;46.12;95922.53;6123157;23;20171;-78
2022/04/22 08:43:39;;;;;;;15.95;11.45;;;;;;;17.01;44.97;95916.91;6066734;23;20199;-77
2022/04/22 08:49:58;;;;;;;15.63;11.35;;;;;;;17.55;44.18;95913.69;6090247;23;20408;-78
2022/04/22 08:51:37;;;;;;;13.35;10.38;;;;;;;17.51;42.70;95915.41;6130203;23;20230;-78
2022/04/22 08:54:03;;;;;;;14.13;11.00;;;;;;;17.43;42.79;95903.84;6125754;23;20585;-77
2022/04/22 08:56:28;;;;;;;13.48;10.80;;;;;;;17.11;43.26;95907.91;6100435;23;20140;-77
2022/04/22 08:58:54;;;;;;;15.90;11.20;;;;;;;17.49;43.64;95899.94;6090740;23;20321;-78
2022/04/22 09:01:19;;;;;;;13.27;10.55;;;;;;;17.87;41.86;95895.66;6098812;23;20544;-79
2022/04/22 09:03:46;;;;;;;14.05;10.40;;;;;;;17.67;42.07;95905.84;6122605;23;20176;-80
2022/04/22 09:06:11;;;;;;;14.52;10.32;;;;;;;17.52;42.51;95907.19;6097889;23;20226;-79
2022/04/22 09:08:37;;;;;;;13.82;11.05;;;;;;;17.86;41.53;95904.63;6063423;23;20187;-80
2022/04/22 09:11:03;;;;;;;13.20;10.25;;;;;;;18.04;41.38;95903.41;6096223;23;20179;-81
2022/04/22 09:13:32;;;;;;;15.05;9.90;;;;;;;18.06;41.71;95901.25;6122009;23;20266;-80
2022/04/22 09:15:58;;;;;;;13.50;10.73;;;;;;;18.15;40.80;95896.66;6088234;23;20708;-79
2022/04/22 09:18:29;;;;;;;13.18;9.73;;;;;;;18.19;40.93;95890.72;6064315;23;20563;-80
2022/04/22 09:21:02;;;;;;;13.43;10.07;;;;;;;18.27;40.10;95882.75;6148128;23;20693;-81
2022/04/22 09:23:35;;;;;;;12.35;9.85;;;;;;;18.03;41.02;95888.72;6064511;23;20559;-80
2022/04/22 09:26:03;;;;;;;12.45;9.30;;;;;;;18.43;41.97;95882.88;6122780;23;20161;-81
2022/04/22 09:28:29;;;;;;;13.02;9.95;;;;;;;18.49;39.88;95883.44;6090337;23;20174;-80
2022/04/22 09:31:02;;;;;;;12.30;9.65;;;;;;;17.31;42.02;95883.50;6121851;23;20163;-78
2022/04/22 09:33:43;;;;;;;11.63;8.63;;;;;;;17.55;41.68;95879.47;6064695;23;20145;-79
2022/04/22 09:45:00;;;;;;;13.13;9.70;;;;;;;17.93;40.90;95868.03;6122108;23;20261;-78
2022/04/22 09:47:31;;;;;;;12.57;9.57;;;;;;;18.51;40.50;95857.53;6121075;23;20136;-79
2022/04/22 09:50:05;;;;;;;10.55;8.43;;;;;;;18.81;39.54;95867.88;6097385;23;20557;-81
2022/04/22 09:52:34;;;;;;;10.65;8.20;;;;;;;18.85;39.19;95869.56;6120505;23;20171;-79
2022/04/22 09:55:02;;;;;;;11.07;8.70;;;;;;;18.61;39.83;95857.13;6122764;23;20164;-79
2022/04/22 09:57:28;;;;;;;13.18;9.52;;;;;;;18.99;39.75;95868.47;6122016;23;20161;-79
2022/04/22 09:59:54;;;;;;;12.40;9.80;;;;;;;18.99;39.36;95863.19;6088339;23;20640;-79
2022/04/22 10:02:25;;;;;;;13.73;9.75;;;;;;;18.74;38.76;95863.16;6115922;23;20179;-79
2022/04/22 10:04:53;;;;;;;10.95;8.23;;;;;;;19.16;38.42;95852.41;6095134;23;20264;-81
2022/04/22 10:07:19;;;;;;;11.43;8.77;;;;;;;19.03;38.93;95856.16;6094822;23;20540;-78
2022/04/22 10:09:45;;;;;;;10.93;9.48;;;;;;;18.64;39.23;95843.25;6062754;23;20176;-79
2022/04/22 10:12:12;;;;;;;10.15;8.73;;;;;;;19.02;39.01;95844.06;6120850;23;20254;-81
2022/04/22 10:14:38;;;;;;;10.50;8.20;;;;;;;19.59;38.57;95843.06;6096108;23;20180;-79
2022/04/22 10:17:05;;;;;;;10.35;8.57;;;;;;;19.21;38.75;95833.72;6123153;23;20160;-79
2022/04/22 10:19:32;;;;;;;9.65;7.95;;;;;;;19.36;39.03;95834.88;6088410;23;20293;-78
2022/04/22 10:21:59;;;;;;;10.63;8.18;;;;;;;19.37;38.52;95836.41;6097517;23;20191;-81
2022/04/22 10:24:25;;;;;;;11.02;8.82;;;;;;;19.40;39.09;95837.63;6113031;23;20176;-79
2022/04/22 10:26:50;;;;;;;10.85;8.55;;;;;;;19.56;37.76;95833.16;6121688;23;20247;-79
2022/04/22 10:29:18;;;;;;;10.73;8.48;;;;;;;19.71;37.87;95813.22;6112086;23;20231;-79
2022/04/22 10:31:43;;;;;;;11.63;8.85;;;;;;;19.98;37.01;95816.19;6088436;23;20164;-78
2022/04/22 10:34:09;;;;;;;11.45;9.07;;;;;;;19.87;37.37;95825.72;6121835;23;20180;-79
2022/04/22 10:36:35;;;;;;;9.98;8.23;;;;;;;20.48;36.89;95811.38;6122469;23;20260;-81
2022/04/22 10:39:00;;;;;;;10.73;8.45;;;;;;;20.75;36.39;95802.59;6096585;23;20338;-81
2022/04/22 10:41:26;;;;;;;8.82;7.93;;;;;;;21.09;36.31;95802.94;6123545;23;20171;-81
2022/04/22 10:49:45;;;;;;;10.20;8.48;;;;;;;20.34;37.19;95803.84;6128709;23;20582;-81
2022/04/22 10:52:18;;;;;;;9.15;8.07;;;;;;;20.93;36.13;95794.28;6121815;23;20531;-80
2022/04/22 10:54:52;;;;;;;9.07;8.07;;;;;;;20.82;34.11;95804.63;6099638;23;20232;-79
2022/04/22 10:57:24;;;;;;;9.23;8.20;;;;;;;21.00;35.39;95797.06;6114643;23;20157;-80
2022/04/22 11:00:07;;;;;;;9.10;7.93;;;;;;;20.79;35.29;95788.69;6114656;23;20257;-83
2022/04/22 11:02:43;;;;;;;9.40;7.65;;;;;;;20.34;36.05;95788.00;6115541;23;20224;-81
2022/04/22 11:07:53;;;;;;;9.65;7.95;;;;;;;20.53;36.17;95787.31;6153682;23;20179;-83
2022/04/22 11:10:19;;;;;;;8.38;7.10;;;;;;;20.39;34.95;95777.94;6124708;23;20255;-81
2022/04/22 11:12:56;;;;;;;8.45;7.45;;;;;;;20.70;35.00;95772.97;6123144;23;20345;-81
2022/04/22 11:15:43;;;;;;;8.85;7.85;;;;;;;20.30;34.34;95781.88;6149698;23;20540;-81
2022/04/22 11:18:13;;;;;;;10.15;8.02;;;;;;;20.67;35.14;95774.44;6090657;23;20618;-82
2022/04/22 11:20:42;;;;;;;8.63;6.55;;;;;;;20.74;35.38;95782.53;6113315;23;20345;-82
2022/04/22 11:23:12;;;;;;;8.68;7.00;;;;;;;20.35;35.59;95771.03;6123074;23;20334;-81
2022/04/22 11:25:38;;;;;;;7.93;6.75;;;;;;;21.33;35.48;95774.66;6087874;23;20179;-81
2022/04/22 11:28:04;;;;;;;8.07;7.15;;;;;;;21.09;34.00;95773.06;6097877;23;20184;-83
2022/04/22 11:30:32;;;;;;;9.95;7.65;;;;;;;21.00;34.12;95762.66;6064230;23;20337;-81
2022/04/22 11:33:09;;;;;;;8.75;7.00;;;;;;;20.55;34.92;95782.47;6122351;23;20081;-82
2022/04/22 11:35:35;;;;;;;9.52;7.45;;;;;;;20.79;35.06;95783.41;6149071;23;20187;-81
2022/04/22 11:38:04;;;;;;;8.98;7.40;;;;;;;20.21;35.14;95776.75;6088801;23;20410;-80
2022/04/22 11:40:35;;;;;;;7.65;6.88;;;;;;;19.58;36.35;95770.22;6123262;23;20556;-80
2022/04/22 11:43:11;;;;;;;8.95;7.53;;;;;;;20.23;37.91;95769.25;6123522;23;20175;-84
2022/04/22 11:45:50;;;;;;;9.13;6.90;;;;;;;20.17;35.92;95757.41;6114842;23;20128;-82
2022/04/22 11:48:23;;;;;;;8.88;7.28;;;;;;;20.64;37.27;95758.50;6097043;23;20251;-83
2022/04/22 11:50:49;;;;;;;8.38;7.20;;;;;;;21.01;36.15;95755.50;6097724;23;20167;-80
2022/04/22 11:53:24;;;;;;;8.02;6.65;;;;;;;20.54;34.99;95762.41;6122391;23;20073;-83
2022/04/22 11:55:49;;;;;;;;;;;;;;;19.85;36.73;95765.28;6123681;23;20095;-81
2022/04/22 11:58:16;;;;;;;7.10;6.40;;;;;;;20.27;36.33;95754.25;6121530;23;20083;-82
2022/04/22 12:06:20;;;;;;;8.52;6.63;;;;;;;19.88;35.83;95758.56;6126703;23;20258;-82
2022/04/22 12:08:56;;;;;;;7.13;6.43;;;;;;;20.27;36.02;95753.47;6063000;23;20649;-84
2022/04/22 12:11:42;;;;;;;7.25;6.10;;;;;;;20.85;35.42;95758.19;6104795;23;20540;-81
2022/04/22 12:14:09;;;;;;;8.10;7.30;;;;;;;20.60;34.56;95753.09;6097959;23;20594;-80
2022/04/22 12:16:34;;;;;;;9.73;7.82;;;;;;;20.53;34.44;95756.34;6121630;23;20328;-83
2022/04/22 12:19:00;;;;;;;6.85;6.15;;;;;;;20.96;34.89;95756.56;6100043;23;20373;-81
2022/04/22 12:21:26;;;;;;;7.95;6.97;;;;;;;20.53;34.30;95748.41;6088131;23;20171;-82
2022/04/22 12:23:57;;;;;;;7.32;6.30;;;;;;;20.39;34.60;95751.50;6097937;23;20605;-84
2022/04/22 12:26:23;;;;;;;6.72;6.03;;;;;;;20.49;35.50;95749.44;6089199;23;20217;-81
2022/04/22 12:28:59;;;;;;;6.18;5.57;;;;;;;20.64;34.41;95746.03;6087661;23;20219;-83
2022/04/22 12:31:25;;;;;;;6.57;5.88;;;;;;;20.47;35.88;95735.81;6121507;23;20313;-80
2022/04/22 12:34:04;;;;;;;6.15;5.55;;;;;;;20.28;35.46;95739.16;6121935;23;20644;-83
2022/04/22 12:36:36;;;;;;;7.60;6.53;;;;;;;20.37;35.73;95737.88;6088179;23;20179;-82